Nyk Constellation — V7NP4 — position and weather

sailwx.info

Track history (hours):
 
Tides and Currents Weather Stations Pressure Air Temp Water Temp Dewpoint Dewpoint Depression Visibility Wind Speed Wind Dir Waves Ship Positions

Nyk Constellation

Last reported at 2016-Dec-01 18:20 UTC. Time now 2016-Dec-08 09:52 UTC.
Position N 38°12' W 123°47'.

Length 294 m; draft 11 m.

Type: Cargo ship. MMSI: 538002992.

Date/timePositionNaut miles runAvg speedWind from/ knotsBaromVisibWave heightAir tempDewpointWater temp
2016-Dec-01 18:20N 38°12' W 123°47'1317.1
2016-Dec-01 17:33N 38°10' W 123°30'1010.0
2016-Dec-01 16:33N 38°07' W 123°18'1717.1
2016-Dec-01 15:33N 37°56' W 123°02'1716.5
2016-Dec-01 14:33N 37°47' W 122°44'1312.6
2016-Dec-01 13:34N 37°49' W 122°28'8 7.9
2016-Dec-01 12:33N 37°48' W 122°19'0 0.0
2016-Dec-01 11:33N 37°48' W 122°19'0 0.0
2016-Dec-01 10:33N 37°48' W 122°19'0 0.0
2016-Dec-01 09:33N 37°48' W 122°19'0 0.0
2016-Dec-01 08:33N 37°48' W 122°19'0 0.0
2016-Dec-01 07:33N 37°48' W 122°19'0 0.0
2016-Dec-01 06:33N 37°48' W 122°19'0 0.0
2016-Dec-01 05:33N 37°48' W 122°19'0 0.0
2016-Dec-01 04:33N 37°48' W 122°19'0 0.0
2016-Dec-01 03:33N 37°48' W 122°19'0 0.0
2016-Dec-01 02:33N 37°48' W 122°19'0 0.0
2016-Dec-01 01:33N 37°48' W 122°19'0 0.0
2016-Dec-01 00:29N 37°48' W 122°19'0 0.0
2016-Nov-30 23:09N 37°48' W 122°19'1 1.5
2016-Nov-30 22:34N 37°48' W 122°18'4 3.8
2016-Nov-30 21:33N 37°48' W 122°22'1 1.1
2016-Nov-30 20:34N 37°47' W 122°21'0 0.2
2016-Nov-30 19:34N 37°47' W 122°21'0 0.0
2016-Nov-30 18:33N 37°47' W 122°21'0 0.0
2016-Nov-30 17:33N 37°47' W 122°21'0 0.0
2016-Nov-30 16:34N 37°47' W 122°21'0 0.1
2016-Nov-30 15:33N 37°47' W 122°21'0 0.3
2016-Nov-30 14:34N 37°47' W 122°21'0 0.1
2016-Nov-30 13:34N 37°47' W 122°21'1 1.5
2016-Nov-30 12:33N 37°48' W 122°23'9 9.1
2016-Nov-30 11:33N 37°47' W 122°34'8 8.3
2016-Nov-30 10:33N 37°40' W 122°40'8 8.2
2016-Nov-30 09:33N 37°32' W 122°39'1110.6
2016-Nov-30 08:33N 37°21' W 122°40'1110.6
2016-Nov-30 07:32N 37°10' W 122°40'1111.2
2016-Nov-30 06:33N 36°60' W 122°36'1211.7
2016-Nov-30 05:33N 36°49' W 122°31'1212.2
2016-Nov-30 04:33N 36°38' W 122°25'1212.2
2016-Nov-30 03:33N 36°27' W 122°18'1211.8
2016-Nov-30 02:33N 36°17' W 122°10'1211.6
2016-Nov-30 01:33N 36°07' W 122°03'1111.1
2016-Nov-30 00:33N 35°57' W 121°57'1110.7
2016-Nov-29 23:33N 35°48' W 121°50'1110.6
2016-Nov-29 22:33N 35°38' W 121°44'1010.4
2016-Nov-29 21:33N 35°29' W 121°38'7813.1
2016-Nov-29 15:33N 34°24' W 120°44'1311.3
2016-Nov-29 14:25N 34°21' W 120°29'1211.8
2016-Nov-29 13:23N 34°18' W 120°15'1112.2
2016-Nov-29 12:29N 34°15' W 120°02'1211.9
2016-Nov-29 11:29N 34°12' W 119°48'1312.0
2016-Nov-29 10:24N 34°08' W 119°33'1012.2
2016-Nov-29 09:33N 34°06' W 119°21'5412.1
2016-Nov-29 05:06N 33°40' W 118°24'610.5
2016-Nov-29 04:33N 33°39' W 118°17'7 0.4
2016-Nov-28 11:23N 33°46' W 118°15'0 0.0
2016-Nov-28 08:26N 33°46' W 118°15'26 1.2
2016-Nov-27 10:13N 33°21' W 118°04'6 9.1
2016-Nov-27 09:33N 33°16' W 118°01'9 8.7
2016-Nov-27 08:33N 33°07' W 117°58'8 8.0
2016-Nov-27 07:33N 32°60' W 117°55'7 6.6
2016-Nov-27 06:33N 32°54' W 117°53'7 6.6
2016-Nov-27 05:33N 32°47' W 117°52'6 6.3
2016-Nov-27 04:33N 32°41' W 117°50'8 8.0
2016-Nov-27 03:33N 32°34' W 117°45'9 9.1
2016-Nov-27 02:33N 32°25' W 117°42'9 9.2
2016-Nov-27 01:33N 32°16' W 117°39'107 9.5
2016-Nov-26 14:17N 30°37' W 116°55'7 9.9
2016-Nov-26 13:33N 30°30' W 116°52'10 9.9
2016-Nov-26 12:33N 30°21' W 116°48'10 9.8
2016-Nov-26 11:31N 30°11' W 116°44'11 9.6
2016-Nov-26 10:22N 30°01' W 116°40'8 9.6
2016-Nov-26 09:33N 29°53' W 116°37'10 9.8
2016-Nov-26 08:33N 29°44' W 116°33'10 9.6
2016-Nov-26 07:33N 29°35' W 116°29'9 9.5
2016-Nov-26 06:33N 29°26' W 116°25'  
Track history (hours):
 
Tides and Currents Weather Stations Pressure Air Temp Water Temp Dewpoint Dewpoint Depression Visibility Wind Speed Wind Dir Waves Ship Positions

Nyk Constellation

Last reported at 2016-Dec-01 18:20 UTC. Time now 2016-Dec-08 09:52 UTC.
Position N 38°12' W 123°47'.

Length 294 m; draft 11 m.

Type: Cargo ship. MMSI: 538002992.

Date/timePositionNaut miles runAvg speedWind from/ knotsBaromVisibWave heightAir tempDewpointWater temp
2016-Dec-01 18:20N 38°12' W 123°47'1317.1
2016-Dec-01 17:33N 38°10' W 123°30'1010.0
2016-Dec-01 16:33N 38°07' W 123°18'1717.1
2016-Dec-01 15:33N 37°56' W 123°02'1716.5
2016-Dec-01 14:33N 37°47' W 122°44'1312.6
2016-Dec-01 13:34N 37°49' W 122°28'8 7.9
2016-Dec-01 12:33N 37°48' W 122°19'0 0.0
2016-Dec-01 11:33N 37°48' W 122°19'0 0.0
2016-Dec-01 10:33N 37°48' W 122°19'0 0.0
2016-Dec-01 09:33N 37°48' W 122°19'0 0.0
2016-Dec-01 08:33N 37°48' W 122°19'0 0.0
2016-Dec-01 07:33N 37°48' W 122°19'0 0.0
2016-Dec-01 06:33N 37°48' W 122°19'0 0.0
2016-Dec-01 05:33N 37°48' W 122°19'0 0.0
2016-Dec-01 04:33N 37°48' W 122°19'0 0.0
2016-Dec-01 03:33N 37°48' W 122°19'0 0.0
2016-Dec-01 02:33N 37°48' W 122°19'0 0.0
2016-Dec-01 01:33N 37°48' W 122°19'0 0.0
2016-Dec-01 00:29N 37°48' W 122°19'0 0.0
2016-Nov-30 23:09N 37°48' W 122°19'1 1.5
2016-Nov-30 22:34N 37°48' W 122°18'4 3.8
2016-Nov-30 21:33N 37°48' W 122°22'1 1.1
2016-Nov-30 20:34N 37°47' W 122°21'0 0.2
2016-Nov-30 19:34N 37°47' W 122°21'0 0.0
2016-Nov-30 18:33N 37°47' W 122°21'0 0.0
2016-Nov-30 17:33N 37°47' W 122°21'0 0.0
2016-Nov-30 16:34N 37°47' W 122°21'0 0.1
2016-Nov-30 15:33N 37°47' W 122°21'0 0.3
2016-Nov-30 14:34N 37°47' W 122°21'0 0.1
2016-Nov-30 13:34N 37°47' W 122°21'1 1.5
2016-Nov-30 12:33N 37°48' W 122°23'9 9.1
2016-Nov-30 11:33N 37°47' W 122°34'8 8.3
2016-Nov-30 10:33N 37°40' W 122°40'8 8.2
2016-Nov-30 09:33N 37°32' W 122°39'1110.6
2016-Nov-30 08:33N 37°21' W 122°40'1110.6
2016-Nov-30 07:32N 37°10' W 122°40'1111.2
2016-Nov-30 06:33N 36°60' W 122°36'1211.7
2016-Nov-30 05:33N 36°49' W 122°31'1212.2
2016-Nov-30 04:33N 36°38' W 122°25'1212.2
2016-Nov-30 03:33N 36°27' W 122°18'1211.8
2016-Nov-30 02:33N 36°17' W 122°10'1211.6
2016-Nov-30 01:33N 36°07' W 122°03'1111.1
2016-Nov-30 00:33N 35°57' W 121°57'1110.7
2016-Nov-29 23:33N 35°48' W 121°50'1110.6
2016-Nov-29 22:33N 35°38' W 121°44'1010.4
2016-Nov-29 21:33N 35°29' W 121°38'7813.1
2016-Nov-29 15:33N 34°24' W 120°44'1311.3
2016-Nov-29 14:25N 34°21' W 120°29'1211.8
2016-Nov-29 13:23N 34°18' W 120°15'1112.2
2016-Nov-29 12:29N 34°15' W 120°02'1211.9
2016-Nov-29 11:29N 34°12' W 119°48'1312.0
2016-Nov-29 10:24N 34°08' W 119°33'1012.2
2016-Nov-29 09:33N 34°06' W 119°21'5412.1
2016-Nov-29 05:06N 33°40' W 118°24'610.5
2016-Nov-29 04:33N 33°39' W 118°17'7 0.4
2016-Nov-28 11:23N 33°46' W 118°15'0 0.0
2016-Nov-28 08:26N 33°46' W 118°15'26 1.2
2016-Nov-27 10:13N 33°21' W 118°04'6 9.1
2016-Nov-27 09:33N 33°16' W 118°01'9 8.7
2016-Nov-27 08:33N 33°07' W 117°58'8 8.0
2016-Nov-27 07:33N 32°60' W 117°55'7 6.6
2016-Nov-27 06:33N 32°54' W 117°53'7 6.6
2016-Nov-27 05:33N 32°47' W 117°52'6 6.3
2016-Nov-27 04:33N 32°41' W 117°50'8 8.0
2016-Nov-27 03:33N 32°34' W 117°45'9 9.1
2016-Nov-27 02:33N 32°25' W 117°42'9 9.2
2016-Nov-27 01:33N 32°16' W 117°39'107 9.5
2016-Nov-26 14:17N 30°37' W 116°55'7 9.9
2016-Nov-26 13:33N 30°30' W 116°52'10 9.9
2016-Nov-26 12:33N 30°21' W 116°48'10 9.8
2016-Nov-26 11:31N 30°11' W 116°44'11 9.6
2016-Nov-26 10:22N 30°01' W 116°40'8 9.6
2016-Nov-26 09:33N 29°53' W 116°37'10 9.8
2016-Nov-26 08:33N 29°44' W 116°33'10 9.6
2016-Nov-26 07:33N 29°35' W 116°29'9 9.5
2016-Nov-26 06:33N 29°26' W 116°25'  

Dump ship's entire track history